createdAt,value
2023-03-05T00:00:43.992Z,18.17
2023-03-05T00:10:49.813Z,18.17
2023-03-05T00:20:55.136Z,18.17
2023-03-05T00:31:00.488Z,18.10
2023-03-05T00:41:06.197Z,18.10
2023-03-05T00:51:11.634Z,18.10
2023-03-05T01:01:17.706Z,18.05
2023-03-05T01:11:23.077Z,18.05
2023-03-05T01:21:28.818Z,18.02
2023-03-05T01:31:33.885Z,18.04
2023-03-05T01:41:39.404Z,18.04
2023-03-05T01:51:45.148Z,18.05
2023-03-05T02:01:50.844Z,18.07
2023-03-05T02:11:56.660Z,18.08
2023-03-05T02:22:02.235Z,18.09
2023-03-05T02:32:08.015Z,18.08
2023-03-05T02:42:13.397Z,18.07
2023-03-05T02:52:20.118Z,18.08
2023-03-05T03:02:25.253Z,18.08
2023-03-05T03:12:31.191Z,18.03
2023-03-05T03:22:36.898Z,18.05
2023-03-05T03:32:42.705Z,18.03
2023-03-05T03:42:47.839Z,18.03
2023-03-05T03:52:53.094Z,17.99
2023-03-05T04:02:58.773Z,18.00
2023-03-05T04:13:04.510Z,18.00
2023-03-05T04:23:09.947Z,17.99
2023-03-05T04:33:15.500Z,17.99
2023-03-05T04:43:20.639Z,17.99
2023-03-05T04:53:26.925Z,18.05
2023-03-05T05:03:32.223Z,18.05
2023-03-05T05:13:37.682Z,18.08
2023-03-05T05:23:43.742Z,18.09
2023-03-05T05:33:49.999Z,18.08
2023-03-05T05:43:55.536Z,18.08
2023-03-05T05:54:00.985Z,18.09
2023-03-05T06:04:06.547Z,18.10
2023-03-05T06:14:11.669Z,18.10
2023-03-05T06:24:17.008Z,18.08
2023-03-05T06:34:22.117Z,18.08
2023-03-05T06:44:27.730Z,18.07
2023-03-05T06:54:32.941Z,18.07
2023-03-05T07:04:38.515Z,18.03
2023-03-05T07:14:44.597Z,18.00
2023-03-05T07:24:49.762Z,18.00
2023-03-05T07:34:55.306Z,17.99
2023-03-05T07:45:00.732Z,18.02
2023-03-05T07:55:06.684Z,18.02
2023-03-05T08:05:12.302Z,18.04
2023-03-05T08:15:18.081Z,18.04
2023-03-05T08:25:23.952Z,18.05
2023-03-05T08:35:29.913Z,18.10
2023-03-05T08:45:34.365Z,18.10
2023-03-05T08:55:36.968Z,11.91
2023-03-05T09:05:42.202Z,10.38
2023-03-05T09:15:49.645Z,13.95
2023-03-05T09:25:57.068Z,13.95
2023-03-05T09:36:03.532Z,16.66
2023-03-05T09:46:09.572Z,16.66
2023-03-05T09:56:15.368Z,17.09
2023-03-05T10:06:21.076Z,17.52
2023-03-05T10:16:26.693Z,17.52
2023-03-05T10:26:32.488Z,17.60
2023-03-05T10:36:38.356Z,17.73
2023-03-05T10:46:44.121Z,17.73
2023-03-05T10:56:49.759Z,17.75
2023-03-05T11:06:55.730Z,18.84
2023-03-05T11:17:01.289Z,18.21
2023-03-05T11:27:06.792Z,18.03
2023-03-05T11:37:12.660Z,18.05
2023-03-05T11:47:18.500Z,18.05
2023-03-05T11:57:24.161Z,18.07
2023-03-05T12:07:30.087Z,18.10
2023-03-05T12:17:35.535Z,18.10
2023-03-05T12:27:41.251Z,18.09
2023-03-05T12:37:46.702Z,18.13
2023-03-05T12:47:52.443Z,18.13
2023-03-05T12:57:58.166Z,18.14
2023-03-05T13:08:03.577Z,18.16
2023-03-05T13:18:09.429Z,18.17
2023-03-05T13:28:15.247Z,18.13
2023-03-05T13:38:20.911Z,18.13
2023-03-05T13:48:26.346Z,18.16
2023-03-05T13:58:31.818Z,18.17
2023-03-05T14:08:37.334Z,18.17
2023-03-05T14:18:43.095Z,18.14
2023-03-05T14:28:48.572Z,18.13
2023-03-05T14:38:54.325Z,18.12
2023-03-05T14:49:00.187Z,18.12
2023-03-05T14:59:05.820Z,18.10
2023-03-05T15:09:11.126Z,18.10
2023-03-05T15:19:17.054Z,18.08
2023-03-05T15:29:22.988Z,18.09
2023-03-05T15:39:28.735Z,18.08
2023-03-05T15:49:34.800Z,18.07
2023-03-05T15:59:40.458Z,18.07
2023-03-05T16:09:46.346Z,18.04
2023-03-05T16:19:51.865Z,18.04
2023-03-05T16:29:57.766Z,18.04
2023-03-05T16:40:03.667Z,18.03
2023-03-05T16:50:09.447Z,18.03
2023-03-05T17:00:14.765Z,17.99
2023-03-05T17:10:20.066Z,18.00
2023-03-05T17:20:25.783Z,18.00
2023-03-05T17:30:31.584Z,18.00
2023-03-05T17:40:37.556Z,18.00
2023-03-05T17:50:42.922Z,18.00
2023-03-05T18:00:48.440Z,18.02
2023-03-05T18:10:54.102Z,17.98
2023-03-05T18:21:00.022Z,17.99
2023-03-05T18:31:05.738Z,17.99
2023-03-05T18:41:11.373Z,17.94
2023-03-05T18:51:16.588Z,17.95
2023-03-05T19:01:24.048Z,17.98
2023-03-05T19:11:29.208Z,17.98
2023-03-05T19:21:35.331Z,17.92
2023-03-05T19:31:41.159Z,17.92
2023-03-05T19:41:47.088Z,17.92
2023-03-05T19:51:54.758Z,17.98
2023-03-05T20:02:01.104Z,17.99
2023-03-05T20:12:06.766Z,17.99
2023-03-05T20:22:12.641Z,17.94
2023-03-05T20:32:18.024Z,17.94
2023-03-05T20:42:23.527Z,17.94
2023-03-05T20:52:29.912Z,17.91
2023-03-05T21:02:35.914Z,17.92
2023-03-05T21:12:42.065Z,17.94
2023-03-05T21:22:51.318Z,17.95
2023-03-05T21:32:57.136Z,18.00
2023-03-05T21:43:03.066Z,17.99
2023-03-05T21:53:09.080Z,18.00
2023-03-05T22:03:14.964Z,18.04
2023-03-05T22:13:20.839Z,18.05
2023-03-05T22:23:26.493Z,18.03
2023-03-05T22:33:31.969Z,17.99
2023-03-05T22:43:37.600Z,17.98
2023-03-05T22:53:43.267Z,17.98
2023-03-05T23:03:48.934Z,17.98
2023-03-05T23:13:54.669Z,17.98
2023-03-05T23:24:00.234Z,17.95
2023-03-05T23:34:05.768Z,17.95
2023-03-05T23:44:10.954Z,17.95
2023-03-05T23:54:16.864Z,17.98
